createdAt,value
2018-01-22T00:01:11.821Z,100543.77
2018-01-22T00:03:42.151Z,100528.15
2018-01-22T00:06:13.170Z,100527.75
2018-01-22T00:08:44.283Z,100522.08
2018-01-22T00:11:15.085Z,100522.84
2018-01-22T00:13:45.542Z,100502.73
2018-01-22T00:16:16.128Z,100489.73
2018-01-22T00:18:46.803Z,100479.58
2018-01-22T00:21:17.670Z,100493.52
2018-01-22T00:23:48.409Z,100500.05
2018-01-22T00:26:19.124Z,100483.38
2018-01-22T00:28:49.908Z,100468.30
2018-01-22T00:31:20.513Z,100458.63
2018-01-22T00:33:50.875Z,100455.52
2018-01-22T00:36:21.317Z,100455.73
2018-01-22T00:38:51.769Z,100451.77
2018-01-22T00:41:22.012Z,100446.45
2018-01-22T00:43:54.329Z,100453.36
2018-01-22T00:46:25.042Z,100450.00
2018-01-22T00:48:56.137Z,100447.75
2018-01-22T00:51:26.704Z,100449.49
2018-01-22T00:53:57.018Z,100440.17
2018-01-22T00:56:27.214Z,100435.38
2018-01-22T00:58:57.526Z,100418.88
2018-01-22T01:01:27.810Z,100410.91
2018-01-22T01:03:58.523Z,100407.16
2018-01-22T01:06:28.898Z,100403.53
2018-01-22T01:08:59.260Z,100410.32
2018-01-22T01:11:30.196Z,100395.64
2018-01-22T01:14:00.530Z,100404.33
2018-01-22T01:16:31.943Z,100387.61
2018-01-22T01:19:02.806Z,100390.59
2018-01-22T01:21:33.836Z,100392.71
2018-01-22T01:24:04.775Z,100392.34
2018-01-22T01:26:35.645Z,100390.45
2018-01-22T01:29:06.270Z,100385.70
2018-01-22T01:31:36.887Z,100381.91
2018-01-22T01:34:07.215Z,100376.94
2018-01-22T01:36:38.271Z,100362.48
2018-01-22T01:39:08.873Z,100357.77
2018-01-22T01:41:39.234Z,100362.39
2018-01-22T01:44:10.078Z,100371.33
2018-01-22T01:46:40.742Z,100362.41
2018-01-22T01:49:11.695Z,100366.79
2018-01-22T01:51:42.012Z,100373.95
2018-01-22T01:54:12.896Z,100370.01
2018-01-22T01:56:43.560Z,100365.73
2018-01-22T01:59:14.236Z,100378.48
2018-01-22T02:01:44.889Z,100373.06
2018-01-22T02:04:15.601Z,100350.10
2018-01-22T02:06:46.065Z,100339.78
2018-01-22T02:09:16.289Z,100350.62
2018-01-22T02:11:46.461Z,100349.99
2018-01-22T02:14:16.753Z,100328.95
2018-01-22T02:16:47.313Z,100318.41
2018-01-22T02:19:17.856Z,100308.98
2018-01-22T02:21:49.595Z,100316.57
2018-01-22T02:24:20.289Z,100307.02
2018-01-22T02:26:50.562Z,100303.77
2018-01-22T02:29:21.644Z,100311.16
2018-01-22T02:31:52.348Z,100309.74
2018-01-22T02:34:23.479Z,100301.51
2018-01-22T02:36:53.853Z,100300.33
2018-01-22T02:39:24.589Z,100290.41
2018-01-22T02:41:54.964Z,100282.08
2018-01-22T02:44:25.401Z,100278.54
2018-01-22T02:46:56.508Z,100261.99
2018-01-22T02:49:27.545Z,100268.55
2018-01-22T02:51:57.748Z,100271.69
2018-01-22T02:54:28.465Z,100260.98
2018-01-22T02:56:58.561Z,100250.80
2018-01-22T02:59:29.109Z,100260.83
2018-01-22T03:01:59.579Z,100243.49
2018-01-22T03:04:30.275Z,100246.11
2018-01-22T03:07:00.736Z,100233.25
2018-01-22T03:09:30.925Z,100256.95
2018-01-22T03:12:01.548Z,100246.91
2018-01-22T03:14:42.532Z,100251.17
2018-01-22T03:17:13.473Z,100257.58
2018-01-22T03:19:44.195Z,100252.52
2018-01-22T03:22:14.533Z,100248.15
2018-01-22T03:27:13.052Z,100254.89
2018-01-22T03:29:43.557Z,100252.95
2018-01-22T03:32:15.475Z,100248.86
2018-01-22T03:34:45.961Z,100250.00
2018-01-22T03:37:16.399Z,100247.65
2018-01-22T03:39:46.610Z,100243.21
2018-01-22T03:42:17.208Z,100240.27
2018-01-22T03:44:47.358Z,100239.55
2018-01-22T03:47:17.982Z,100232.52
2018-01-22T03:49:48.120Z,100230.44
2018-01-22T03:52:18.350Z,100217.44
2018-01-22T03:54:49.346Z,100220.42
2018-01-22T03:57:19.610Z,100228.93
2018-01-22T03:59:49.751Z,100233.61
2018-01-22T04:02:21.211Z,100230.06
2018-01-22T04:07:24.015Z,100239.15
2018-01-22T04:09:54.983Z,100228.84
2018-01-22T04:12:26.335Z,100221.77
2018-01-22T04:14:56.522Z,100216.80
2018-01-22T04:17:27.454Z,100197.01
2018-01-22T04:19:57.871Z,100200.77
2018-01-22T04:22:35.163Z,100206.92
2018-01-22T04:25:06.068Z,100204.41
2018-01-22T04:27:36.406Z,100206.09
2018-01-22T04:30:08.993Z,100212.06
2018-01-22T04:32:39.569Z,100218.16
2018-01-22T04:35:18.759Z,100216.75
2018-01-22T04:37:50.815Z,100221.36
2018-01-22T04:40:22.040Z,100216.01
2018-01-22T04:42:53.170Z,100218.02
2018-01-22T04:45:24.463Z,100202.20
2018-01-22T04:47:54.723Z,100205.38
2018-01-22T04:50:25.472Z,100187.03
2018-01-22T04:52:56.245Z,100186.99
2018-01-22T04:55:27.717Z,100161.70
2018-01-22T04:57:58.292Z,100177.45
2018-01-22T05:00:28.897Z,100173.40
2018-01-22T05:02:59.548Z,100171.56
2018-01-22T05:05:29.866Z,100176.83
2018-01-22T05:08:00.605Z,100169.02
2018-01-22T05:10:30.803Z,100163.22
2018-01-22T05:13:02.216Z,100166.98
2018-01-22T05:15:32.740Z,100171.52
2018-01-22T05:18:03.553Z,100178.89
2018-01-22T05:20:33.795Z,100167.21
2018-01-22T05:23:03.990Z,100169.50
2018-01-22T05:25:34.230Z,100161.30
2018-01-22T05:28:04.405Z,100153.73
2018-01-22T05:30:35.483Z,100156.72
2018-01-22T05:33:06.409Z,100138.70
2018-01-22T05:35:36.660Z,100154.16
2018-01-22T05:38:06.971Z,100147.82
2018-01-22T05:40:37.182Z,100149.13
2018-01-22T05:43:11.550Z,100140.38
2018-01-22T05:45:42.060Z,100142.86
2018-01-22T05:48:12.918Z,100156.47
2018-01-22T05:50:43.162Z,100155.19
2018-01-22T05:53:13.337Z,100158.00
2018-01-22T05:55:44.165Z,100163.75
2018-01-22T05:58:14.871Z,100165.98
2018-01-22T06:00:45.812Z,100151.03
2018-01-22T06:03:16.627Z,100138.44
2018-01-22T06:05:48.353Z,100159.78
2018-01-22T06:08:19.028Z,100165.48
2018-01-22T06:10:49.417Z,100161.82
2018-01-22T06:13:19.609Z,100160.32
2018-01-22T06:15:51.799Z,100174.35
2018-01-22T06:18:21.984Z,100163.05
2018-01-22T06:20:52.244Z,100161.84
2018-01-22T06:23:22.769Z,100159.31
2018-01-22T06:25:53.057Z,100156.58
2018-01-22T06:28:23.252Z,100147.48
2018-01-22T06:30:53.760Z,100158.84
2018-01-22T06:33:24.046Z,100176.33
2018-01-22T06:35:54.647Z,100176.66
2018-01-22T06:38:28.090Z,100179.19
2018-01-22T06:40:58.324Z,100188.12
2018-01-22T06:43:30.966Z,100191.92
2018-01-22T06:46:03.035Z,100194.88
2018-01-22T06:48:33.438Z,100181.00
2018-01-22T06:51:05.135Z,100180.60
2018-01-22T06:53:35.385Z,100180.23
2018-01-22T06:56:06.774Z,100184.36
2018-01-22T06:58:37.423Z,100185.87
2018-01-22T07:01:08.046Z,100186.36
2018-01-22T07:03:39.071Z,100171.30
2018-01-22T07:06:10.066Z,100178.13
2018-01-22T07:08:41.598Z,100170.72
2018-01-22T07:11:12.159Z,100163.88
2018-01-22T07:13:42.855Z,100169.11
2018-01-22T07:16:14.220Z,100173.79
2018-01-22T07:18:44.750Z,100176.50
2018-01-22T07:21:15.702Z,100189.84
2018-01-22T07:23:57.142Z,100195.20
2018-01-22T07:26:27.589Z,100207.34
2018-01-22T07:29:02.599Z,100196.01
2018-01-22T07:31:34.966Z,100224.11
2018-01-22T07:34:06.106Z,100220.00
2018-01-22T07:36:36.759Z,100212.95
2018-01-22T07:39:06.998Z,100221.81
2018-01-22T07:41:37.961Z,100230.59
2018-01-22T07:44:08.576Z,100214.73
2018-01-22T07:46:39.119Z,100196.77
2018-01-22T07:49:10.067Z,100199.28
2018-01-22T07:51:40.355Z,100193.97
2018-01-22T07:54:10.737Z,100194.95
2018-01-22T07:56:41.100Z,100198.31
2018-01-22T07:59:11.853Z,100212.63
2018-01-22T08:01:43.780Z,100215.06
2018-01-22T08:04:15.203Z,100217.23
2018-01-22T08:06:45.943Z,100222.58
2018-01-22T08:09:16.675Z,100213.32
2018-01-22T08:11:48.432Z,100210.81
2018-01-22T08:14:21.642Z,100217.77
2018-01-22T08:16:52.960Z,100222.58
2018-01-22T08:19:23.817Z,100219.06
2018-01-22T08:21:54.518Z,100216.91
2018-01-22T08:24:25.779Z,100203.94
2018-01-22T08:26:56.576Z,100207.37
2018-01-22T08:29:27.933Z,100226.31
2018-01-22T08:31:58.903Z,100225.95
2018-01-22T08:34:29.329Z,100214.28
2018-01-22T08:37:00.090Z,100223.71
2018-01-22T08:39:31.603Z,100236.36
2018-01-22T08:42:02.211Z,100230.13
2018-01-22T08:44:38.206Z,100237.33
2018-01-22T08:47:08.781Z,100231.95
2018-01-22T08:49:39.051Z,100234.75
2018-01-22T08:54:42.757Z,100230.84
2018-01-22T08:57:13.130Z,100225.05
2018-01-22T09:02:14.733Z,100243.58
2018-01-22T09:04:47.667Z,100242.17
2018-01-22T09:07:18.004Z,100242.13
2018-01-22T09:09:51.347Z,100241.20
2018-01-22T09:12:21.820Z,100236.69
2018-01-22T09:14:52.558Z,100242.95
2018-01-22T09:17:23.882Z,100257.34
2018-01-22T09:19:54.739Z,100242.80
2018-01-22T09:22:25.273Z,100264.87
2018-01-22T09:24:56.033Z,100269.17
2018-01-22T09:27:26.686Z,100262.03
2018-01-22T09:29:57.593Z,100261.20
2018-01-22T09:32:29.696Z,100265.66
2018-01-22T09:35:00.990Z,100258.70
2018-01-22T09:37:31.446Z,100267.66
2018-01-22T09:40:02.146Z,100262.98
2018-01-22T09:42:34.268Z,100263.77
2018-01-22T09:45:07.416Z,100270.95
2018-01-22T09:47:39.465Z,100259.95
2018-01-22T09:50:19.564Z,100257.91
2018-01-22T09:52:50.301Z,100264.06
2018-01-22T09:55:20.522Z,100262.38
2018-01-22T09:57:51.096Z,100270.14
2018-01-22T10:00:21.504Z,100271.34
2018-01-22T10:02:51.714Z,100272.81
2018-01-22T10:08:03.014Z,100290.67
2018-01-22T10:10:33.981Z,100298.70
2018-01-22T10:13:05.246Z,100298.75
2018-01-22T10:15:35.955Z,100297.55
2018-01-22T10:18:07.929Z,100311.09
2018-01-22T10:20:39.615Z,100306.86
2018-01-22T10:23:09.944Z,100312.13
2018-01-22T10:25:42.417Z,100307.85
2018-01-22T10:28:13.485Z,100314.64
2018-01-22T10:30:44.322Z,100315.67
2018-01-22T10:33:14.513Z,100304.02
2018-01-22T10:35:45.018Z,100306.17
2018-01-22T10:38:15.539Z,100307.02
2018-01-22T10:40:45.873Z,100304.59
2018-01-22T10:43:18.841Z,100309.38
2018-01-22T10:45:50.304Z,100291.23
2018-01-22T10:48:21.527Z,100309.52
2018-01-22T10:50:51.901Z,100306.83
2018-01-22T10:53:22.165Z,100294.64
2018-01-22T10:55:56.277Z,100302.35
2018-01-22T10:58:28.120Z,100303.86
2018-01-22T11:01:02.227Z,100295.22
2018-01-22T11:03:38.568Z,100301.27
2018-01-22T11:06:11.496Z,100304.23
2018-01-22T11:08:41.890Z,100303.92
2018-01-22T11:11:12.398Z,100314.67
2018-01-22T11:14:05.265Z,100311.76
2018-01-22T11:16:36.154Z,100306.13
2018-01-22T11:19:09.178Z,100302.69
2018-01-22T11:21:40.215Z,100310.27
2018-01-22T11:24:10.965Z,100310.52
2018-01-22T11:26:42.737Z,100313.97
2018-01-22T11:29:14.304Z,100310.35
2018-01-22T11:31:47.995Z,100328.50
2018-01-22T11:34:19.120Z,100323.83
2018-01-22T11:36:51.463Z,100315.78
2018-01-22T11:39:22.727Z,100322.72
2018-01-22T11:42:06.947Z,100319.55
2018-01-22T11:44:39.209Z,100317.57
2018-01-22T11:47:10.726Z,100322.31
2018-01-22T11:49:49.405Z,100311.35
2018-01-22T11:52:21.005Z,100312.78
2018-01-22T11:54:52.309Z,100308.36
2018-01-22T11:57:23.434Z,100312.95
2018-01-22T11:59:56.002Z,100321.04
2018-01-22T12:02:26.802Z,100318.71
2018-01-22T12:04:57.198Z,100327.76
2018-01-22T12:07:29.547Z,100321.84
2018-01-22T12:10:00.063Z,100323.28
2018-01-22T12:15:08.289Z,100327.66
2018-01-22T12:17:38.838Z,100321.84
2018-01-22T12:20:10.100Z,100324.03
2018-01-22T12:22:41.086Z,100327.14
2018-01-22T12:25:11.479Z,100320.98
2018-01-22T12:27:42.819Z,100346.23
2018-01-22T12:30:17.778Z,100355.36
2018-01-22T12:32:54.731Z,100347.78
2018-01-22T12:35:26.713Z,100341.61
2018-01-22T12:37:57.121Z,100346.56
2018-01-22T12:40:28.150Z,100354.55
2018-01-22T12:42:58.905Z,100354.66
2018-01-22T12:45:30.397Z,100346.14
2018-01-22T12:48:03.265Z,100344.95
2018-01-22T12:50:46.214Z,100372.06
2018-01-22T12:53:30.177Z,100366.97
2018-01-22T12:56:00.768Z,100373.91
2018-01-22T12:58:33.207Z,100372.30
2018-01-22T13:01:06.673Z,100368.30
2018-01-22T13:03:53.443Z,100374.66
2018-01-22T13:06:37.800Z,100371.36
2018-01-22T13:09:10.577Z,100377.52
2018-01-22T13:11:44.934Z,100366.34
2018-01-22T13:14:15.541Z,100377.70
2018-01-22T13:16:52.020Z,100378.34
2018-01-22T13:19:24.826Z,100383.34
2018-01-22T13:21:57.804Z,100380.30
2018-01-22T13:24:30.017Z,100389.28
2018-01-22T13:27:04.658Z,100395.34
2018-01-22T13:29:42.863Z,100393.79
2018-01-22T13:32:13.870Z,100374.77
2018-01-22T13:34:45.222Z,100391.24
2018-01-22T13:37:16.327Z,100408.91
2018-01-22T13:39:46.845Z,100401.73
2018-01-22T13:42:17.643Z,100409.00
2018-01-22T13:44:52.587Z,100393.70
2018-01-22T13:47:23.087Z,100400.23
2018-01-22T13:49:54.401Z,100413.91
2018-01-22T13:52:24.950Z,100421.20
2018-01-22T13:54:55.762Z,100422.82
2018-01-22T13:57:26.212Z,100409.48
2018-01-22T14:00:07.531Z,100432.86
2018-01-22T14:02:38.709Z,100439.70
2018-01-22T14:05:09.678Z,100444.65
2018-01-22T14:07:43.982Z,100455.80
2018-01-22T14:10:14.935Z,100453.37
2018-01-22T14:12:46.052Z,100460.92
2018-01-22T14:15:17.882Z,100458.09
2018-01-22T14:17:52.158Z,100461.78
2018-01-22T14:20:23.055Z,100478.17
2018-01-22T14:22:53.882Z,100470.38
2018-01-22T14:25:25.344Z,100470.36
2018-01-22T14:27:57.809Z,100476.71
2018-01-22T14:30:38.131Z,100487.03
2018-01-22T14:33:12.630Z,100485.83
2018-01-22T14:38:12.283Z,100481.50
2018-01-22T14:40:46.377Z,100498.43
2018-01-22T14:43:23.491Z,100510.66
2018-01-22T14:46:00.661Z,100515.62
2018-01-22T14:48:35.509Z,100507.03
2018-01-22T14:51:11.310Z,100502.50
2018-01-22T14:53:49.761Z,100525.69
2018-01-22T14:56:32.907Z,100530.39
2018-01-22T14:59:11.166Z,100530.89
2018-01-22T15:01:45.531Z,100537.41
2018-01-22T15:04:29.173Z,100541.20
2018-01-22T15:07:02.016Z,100550.28
2018-01-22T15:09:36.012Z,100546.69
2018-01-22T15:12:09.847Z,100548.30
2018-01-22T15:17:42.156Z,100550.09
2018-01-22T15:20:16.555Z,100552.91
2018-01-22T15:22:51.268Z,100555.61
2018-01-22T15:25:23.257Z,100570.27
2018-01-22T15:28:00.757Z,100571.94
2018-01-22T15:30:36.309Z,100579.11
2018-01-22T15:33:09.466Z,100583.09
2018-01-22T15:35:41.925Z,100583.66
2018-01-22T15:38:18.699Z,100593.05
2018-01-22T15:40:58.196Z,100596.67
2018-01-22T15:43:34.795Z,100608.80
2018-01-22T15:46:05.832Z,100626.70
2018-01-22T15:48:39.302Z,100638.22
2018-01-22T15:51:13.244Z,100636.70
2018-01-22T15:53:48.673Z,100650.28
2018-01-22T15:56:26.685Z,100651.78
2018-01-22T15:59:03.350Z,100655.34
2018-01-22T16:01:47.820Z,100661.11
2018-01-22T16:07:08.097Z,100669.81
2018-01-22T16:09:46.285Z,100677.16
2018-01-22T16:12:19.356Z,100678.91
2018-01-22T16:14:52.632Z,100685.44
2018-01-22T16:17:29.787Z,100693.63
2018-01-22T16:20:02.188Z,100707.17
2018-01-22T16:22:38.144Z,100720.68
2018-01-22T16:25:10.040Z,100721.59
2018-01-22T16:27:41.804Z,100738.34
2018-01-22T16:30:16.719Z,100747.19
2018-01-22T16:32:50.254Z,100755.00
2018-01-22T16:35:23.282Z,100756.08
2018-01-22T16:38:03.686Z,100757.41
2018-01-22T16:40:37.055Z,100751.95
2018-01-22T16:43:09.656Z,100760.89
2018-01-22T16:45:45.483Z,100769.56
2018-01-22T16:48:17.265Z,100778.67
2018-01-22T16:50:49.271Z,100775.02
2018-01-22T16:53:24.401Z,100793.12
2018-01-22T16:55:58.734Z,100790.41
2018-01-22T16:58:30.007Z,100794.17
2018-01-22T17:01:02.226Z,100792.82
2018-01-22T17:03:34.698Z,100796.20
2018-01-22T17:06:05.593Z,100797.20
2018-01-22T17:11:19.745Z,100816.13
2018-01-22T17:13:53.648Z,100807.36
2018-01-22T17:16:25.117Z,100817.03
2018-01-22T17:19:00.522Z,100828.43
2018-01-22T17:21:32.250Z,100827.72
2018-01-22T17:24:04.309Z,100813.63
2018-01-22T17:26:46.403Z,100829.97
2018-01-22T17:29:18.465Z,100837.83
2018-01-22T17:32:13.888Z,100845.05
2018-01-22T17:34:45.917Z,100865.88
2018-01-22T17:37:18.356Z,100839.89
2018-01-22T17:39:49.896Z,100855.31
2018-01-22T17:42:20.850Z,100873.75
2018-01-22T17:44:53.115Z,100867.52
2018-01-22T17:47:25.648Z,100879.12
2018-01-22T17:49:56.778Z,100869.20
2018-01-22T17:52:31.772Z,100895.59
2018-01-22T17:55:03.320Z,100888.81
2018-01-22T17:57:36.885Z,100898.87
2018-01-22T18:00:09.587Z,100886.22
2018-01-22T18:02:41.093Z,100912.06
2018-01-22T18:05:13.479Z,100899.70
2018-01-22T18:07:46.021Z,100922.51
2018-01-22T18:10:20.693Z,100930.07
2018-01-22T18:12:53.641Z,100927.92
2018-01-22T18:15:33.538Z,100924.95
2018-01-22T18:18:11.286Z,100939.23
2018-01-22T18:20:44.465Z,100936.36
2018-01-22T18:23:18.515Z,100944.28
2018-01-22T18:25:54.832Z,100954.05
2018-01-22T18:31:16.680Z,100976.41
2018-01-22T18:33:54.420Z,100991.90
2018-01-22T18:36:32.625Z,100994.95
2018-01-22T18:42:04.048Z,100995.11
2018-01-22T18:44:38.155Z,100992.38
2018-01-22T18:47:10.734Z,101010.41
2018-01-22T18:49:49.581Z,100997.50
2018-01-22T18:52:28.110Z,101002.63
2018-01-22T18:55:08.141Z,101000.42
2018-01-22T18:57:47.288Z,101011.25
2018-01-22T19:00:22.667Z,101007.90
2018-01-22T19:05:42.284Z,101017.55
2018-01-22T19:08:17.415Z,101031.77
2018-01-22T19:10:55.207Z,101037.89
2018-01-22T19:13:30.347Z,101042.24
2018-01-22T19:16:05.331Z,101044.59
2018-01-22T19:18:42.149Z,101009.14
2018-01-22T19:21:19.503Z,101064.09
2018-01-22T19:24:00.391Z,101065.13
2018-01-22T19:26:56.568Z,101062.30
2018-01-22T19:29:47.347Z,101067.97
2018-01-22T19:32:27.246Z,101072.03
2018-01-22T19:35:08.236Z,101073.11
2018-01-22T19:37:43.390Z,101080.41
2018-01-22T19:40:25.197Z,101082.88
2018-01-22T19:42:58.653Z,101094.36
2018-01-22T19:45:50.734Z,101077.40
2018-01-22T19:48:23.871Z,101091.98
2018-01-22T19:51:14.232Z,101091.55
2018-01-22T19:53:49.826Z,101102.68
2018-01-22T19:56:25.838Z,101087.20
2018-01-22T19:59:02.581Z,101102.93
2018-01-22T20:01:41.913Z,101115.55
2018-01-22T20:06:51.665Z,101112.19
2018-01-22T20:09:27.638Z,101114.11
2018-01-22T20:12:01.140Z,101111.82
2018-01-22T20:14:41.408Z,101123.73
2018-01-22T20:17:17.122Z,101137.79
2018-01-22T20:22:42.206Z,101169.59
2018-01-22T20:25:16.373Z,101163.84
2018-01-22T20:27:49.584Z,101158.95
2018-01-22T20:30:26.309Z,101155.58
2018-01-22T20:33:03.402Z,101161.84
2018-01-22T20:35:43.323Z,101172.49
2018-01-22T20:38:19.280Z,101173.08
2018-01-22T20:40:51.751Z,101161.14
2018-01-22T20:43:26.392Z,101177.05
2018-01-22T20:46:03.403Z,101177.92
2018-01-22T20:48:37.698Z,101193.80
2018-01-22T20:51:12.501Z,101197.48
2018-01-22T20:53:49.684Z,101204.55
2018-01-22T20:56:25.517Z,101206.19
2018-01-22T20:59:00.000Z,101211.62
2018-01-22T21:01:36.813Z,101205.82
2018-01-22T21:04:12.628Z,101207.63
2018-01-22T21:06:52.804Z,101205.64
2018-01-22T21:09:35.161Z,101206.97
2018-01-22T21:12:10.029Z,101218.22
2018-01-22T21:14:47.272Z,101234.89
2018-01-22T21:17:21.204Z,101236.86
2018-01-22T21:19:51.546Z,101232.23
2018-01-22T21:22:23.119Z,101236.77
2018-01-22T21:25:05.448Z,101254.33
2018-01-22T21:27:41.278Z,101248.52
2018-01-22T21:30:14.566Z,101216.87
2018-01-22T21:32:50.108Z,101252.62
2018-01-22T21:38:06.282Z,101259.53
2018-01-22T21:40:39.539Z,101260.39
2018-01-22T21:43:13.988Z,101257.16
2018-01-22T21:45:49.008Z,101265.87
2018-01-22T21:48:27.512Z,101274.39
2018-01-22T21:50:59.228Z,101275.07
2018-01-22T21:53:33.695Z,101284.16
2018-01-22T21:56:07.532Z,101289.81
2018-01-22T21:58:45.794Z,101287.63
2018-01-22T22:01:23.181Z,101288.20
2018-01-22T22:03:56.642Z,101287.30
2018-01-22T22:06:40.245Z,101293.47
2018-01-22T22:09:14.244Z,101295.83
2018-01-22T22:11:49.616Z,101305.89
2018-01-22T22:14:22.911Z,101320.99
2018-01-22T22:16:58.285Z,101329.58
2018-01-22T22:19:33.878Z,101324.83
2018-01-22T22:22:09.668Z,101334.89
2018-01-22T22:24:44.284Z,101338.59
2018-01-22T22:27:19.846Z,101340.90
2018-01-22T22:29:55.721Z,101348.70
2018-01-22T22:32:34.975Z,101351.73
2018-01-22T22:35:11.630Z,101355.37
2018-01-22T22:37:51.413Z,101367.56
2018-01-22T22:40:28.422Z,101356.91
2018-01-22T22:43:02.934Z,101365.66
2018-01-22T22:45:40.321Z,101371.95
2018-01-22T22:48:19.277Z,101379.25
2018-01-22T22:50:50.595Z,101381.58
2018-01-22T22:53:27.767Z,101379.64
2018-01-22T22:56:05.157Z,101390.75
2018-01-22T23:04:14.380Z,101391.44
2018-01-22T23:06:55.165Z,101391.95
2018-01-22T23:09:30.385Z,101393.52
2018-01-22T23:12:04.520Z,101383.61
2018-01-22T23:14:39.273Z,101395.50
2018-01-22T23:17:15.385Z,101413.66
2018-01-22T23:19:51.867Z,101414.16
2018-01-22T23:22:24.516Z,101424.05
2018-01-22T23:25:07.515Z,101422.02
2018-01-22T23:27:41.877Z,101435.28
2018-01-22T23:30:18.155Z,101433.05
2018-01-22T23:32:54.566Z,101432.42
2018-01-22T23:35:29.358Z,101448.81
2018-01-22T23:38:05.271Z,101438.23
2018-01-22T23:40:38.615Z,101449.16
2018-01-22T23:43:10.992Z,101445.41
2018-01-22T23:45:43.649Z,101448.06
2018-01-22T23:48:20.197Z,101446.27
2018-01-22T23:50:53.725Z,101462.67
2018-01-22T23:53:31.038Z,101452.24
2018-01-22T23:56:04.484Z,101464.72
2018-01-22T23:58:36.367Z,101470.13
